sensor_id;sensor_type;location;lat;lon;timestamp;P1;durP1;ratioP1;P2;durP2;ratioP2
46116;SDS011;32591;48.102;11.772;2023-05-14T00:01:43;12.90;;;8.95;;
46116;SDS011;32591;48.102;11.772;2023-05-14T00:04:12;13.65;;;9.02;;
46116;SDS011;32591;48.102;11.772;2023-05-14T00:06:39;13.40;;;8.45;;
46116;SDS011;32591;48.102;11.772;2023-05-14T00:09:06;12.82;;;8.35;;
46116;SDS011;32591;48.102;11.772;2023-05-14T00:11:33;13.85;;;8.65;;
46116;SDS011;32591;48.102;11.772;2023-05-14T00:14:00;15.80;;;9.15;;
46116;SDS011;32591;48.102;11.772;2023-05-14T00:16:27;14.95;;;8.85;;
46116;SDS011;32591;48.102;11.772;2023-05-14T00:18:54;13.88;;;8.85;;
46116;SDS011;32591;48.102;11.772;2023-05-14T00:21:22;13.70;;;8.85;;
46116;SDS011;32591;48.102;11.772;2023-05-14T00:23:49;15.40;;;9.63;;
46116;SDS011;32591;48.102;11.772;2023-05-14T00:26:15;13.50;;;8.52;;
46116;SDS011;32591;48.102;11.772;2023-05-14T00:28:42;12.82;;;8.88;;
46116;SDS011;32591;48.102;11.772;2023-05-14T00:31:10;13.55;;;8.80;;
46116;SDS011;32591;48.102;11.772;2023-05-14T00:33:36;15.00;;;9.00;;
46116;SDS011;32591;48.102;11.772;2023-05-14T00:36:04;15.23;;;8.43;;
46116;SDS011;32591;48.102;11.772;2023-05-14T00:38:32;13.23;;;9.48;;
46116;SDS011;32591;48.102;11.772;2023-05-14T00:40:59;13.60;;;8.23;;
46116;SDS011;32591;48.102;11.772;2023-05-14T00:43:26;12.50;;;8.30;;
46116;SDS011;32591;48.102;11.772;2023-05-14T00:45:53;12.25;;;8.25;;
46116;SDS011;32591;48.102;11.772;2023-05-14T00:48:21;13.88;;;8.73;;
46116;SDS011;32591;48.102;11.772;2023-05-14T00:50:49;14.00;;;8.60;;
46116;SDS011;32591;48.102;11.772;2023-05-14T00:53:16;12.70;;;8.13;;
46116;SDS011;32591;48.102;11.772;2023-05-14T00:55:46;11.82;;;7.72;;
46116;SDS011;32591;48.102;11.772;2023-05-14T00:58:15;12.35;;;7.88;;
46116;SDS011;32591;48.102;11.772;2023-05-14T01:00:44;13.32;;;8.32;;
46116;SDS011;32591;48.102;11.772;2023-05-14T01:03:11;13.35;;;8.20;;
46116;SDS011;32591;48.102;11.772;2023-05-14T01:05:41;12.35;;;8.07;;
46116;SDS011;32591;48.102;11.772;2023-05-14T01:08:24;12.32;;;7.97;;
46116;SDS011;32591;48.102;11.772;2023-05-14T01:11:02;17.17;;;9.03;;
46116;SDS011;32591;48.102;11.772;2023-05-14T01:13:40;14.05;;;8.55;;
46116;SDS011;32591;48.102;11.772;2023-05-14T01:16:14;16.92;;;10.32;;
46116;SDS011;32591;48.102;11.772;2023-05-14T01:18:44;14.25;;;8.98;;
46116;SDS011;32591;48.102;11.772;2023-05-14T01:21:17;15.23;;;9.52;;
46116;SDS011;32591;48.102;11.772;2023-05-14T01:23:59;15.70;;;8.77;;
46116;SDS011;32591;48.102;11.772;2023-05-14T01:26:26;15.27;;;9.88;;
46116;SDS011;32591;48.102;11.772;2023-05-14T01:28:55;14.85;;;9.18;;
46116;SDS011;32591;48.102;11.772;2023-05-14T01:31:27;15.65;;;9.10;;
46116;SDS011;32591;48.102;11.772;2023-05-14T01:33:57;13.95;;;9.40;;
46116;SDS011;32591;48.102;11.772;2023-05-14T01:36:26;18.00;;;10.05;;
46116;SDS011;32591;48.102;11.772;2023-05-14T01:38:55;14.48;;;9.48;;
46116;SDS011;32591;48.102;11.772;2023-05-14T01:41:22;17.85;;;9.85;;
46116;SDS011;32591;48.102;11.772;2023-05-14T01:43:51;11.82;;;7.97;;
46116;SDS011;32591;48.102;11.772;2023-05-14T01:46:18;17.38;;;9.20;;
46116;SDS011;32591;48.102;11.772;2023-05-14T01:48:48;13.52;;;8.68;;
46116;SDS011;32591;48.102;11.772;2023-05-14T01:51:15;14.43;;;9.30;;
46116;SDS011;32591;48.102;11.772;2023-05-14T01:53:43;14.35;;;9.57;;
46116;SDS011;32591;48.102;11.772;2023-05-14T01:56:10;14.80;;;9.00;;
46116;SDS011;32591;48.102;11.772;2023-05-14T01:58:37;13.77;;;8.77;;
46116;SDS011;32591;48.102;11.772;2023-05-14T02:01:04;14.20;;;8.52;;
46116;SDS011;32591;48.102;11.772;2023-05-14T02:03:31;15.45;;;9.60;;
46116;SDS011;32591;48.102;11.772;2023-05-14T02:05:58;16.35;;;10.40;;
46116;SDS011;32591;48.102;11.772;2023-05-14T02:08:25;13.60;;;9.02;;
46116;SDS011;32591;48.102;11.772;2023-05-14T02:10:53;12.77;;;8.48;;
46116;SDS011;32591;48.102;11.772;2023-05-14T02:13:20;18.35;;;10.35;;
46116;SDS011;32591;48.102;11.772;2023-05-14T02:15:48;14.30;;;9.77;;
46116;SDS011;32591;48.102;11.772;2023-05-14T02:18:15;15.52;;;9.00;;
46116;SDS011;32591;48.102;11.772;2023-05-14T02:20:42;15.82;;;9.68;;
46116;SDS011;32591;48.102;11.772;2023-05-14T02:23:09;14.98;;;9.85;;
46116;SDS011;32591;48.102;11.772;2023-05-14T02:25:36;15.80;;;9.65;;
46116;SDS011;32591;48.102;11.772;2023-05-14T02:28:04;14.13;;;9.18;;
46116;SDS011;32591;48.102;11.772;2023-05-14T02:30:31;14.35;;;9.00;;
46116;SDS011;32591;48.102;11.772;2023-05-14T02:32:58;15.95;;;9.70;;
46116;SDS011;32591;48.102;11.772;2023-05-14T02:35:25;17.58;;;11.05;;
46116;SDS011;32591;48.102;11.772;2023-05-14T02:37:52;19.33;;;9.90;;
46116;SDS011;32591;48.102;11.772;2023-05-14T02:40:20;17.77;;;10.52;;
46116;SDS011;32591;48.102;11.772;2023-05-14T02:42:47;18.38;;;11.50;;
46116;SDS011;32591;48.102;11.772;2023-05-14T02:45:15;17.45;;;9.68;;
46116;SDS011;32591;48.102;11.772;2023-05-14T02:47:42;19.80;;;11.30;;
46116;SDS011;32591;48.102;11.772;2023-05-14T02:50:09;21.35;;;11.45;;
46116;SDS011;32591;48.102;11.772;2023-05-14T02:52:36;18.45;;;11.45;;
46116;SDS011;32591;48.102;11.772;2023-05-14T02:55:04;17.13;;;11.18;;
46116;SDS011;32591;48.102;11.772;2023-05-14T02:57:32;22.42;;;11.07;;
46116;SDS011;32591;48.102;11.772;2023-05-14T02:59:58;18.08;;;11.23;;
46116;SDS011;32591;48.102;11.772;2023-05-14T03:02:27;19.35;;;10.98;;
46116;SDS011;32591;48.102;11.772;2023-05-14T03:04:54;19.77;;;11.70;;
46116;SDS011;32591;48.102;11.772;2023-05-14T03:07:21;20.63;;;12.48;;
46116;SDS011;32591;48.102;11.772;2023-05-14T03:09:48;19.85;;;12.90;;
46116;SDS011;32591;48.102;11.772;2023-05-14T03:12:15;22.00;;;12.82;;
46116;SDS011;32591;48.102;11.772;2023-05-14T03:14:42;18.13;;;11.20;;
46116;SDS011;32591;48.102;11.772;2023-05-14T03:17:09;20.27;;;12.15;;
46116;SDS011;32591;48.102;11.772;2023-05-14T03:19:37;24.00;;;12.60;;
46116;SDS011;32591;48.102;11.772;2023-05-14T03:22:04;24.35;;;13.63;;
46116;SDS011;32591;48.102;11.772;2023-05-14T03:24:31;21.10;;;12.50;;
46116;SDS011;32591;48.102;11.772;2023-05-14T03:26:58;20.10;;;11.88;;
46116;SDS011;32591;48.102;11.772;2023-05-14T03:29:25;20.02;;;12.63;;
46116;SDS011;32591;48.102;11.772;2023-05-14T03:31:52;23.85;;;13.05;;
46116;SDS011;32591;48.102;11.772;2023-05-14T03:34:19;19.23;;;12.70;;
46116;SDS011;32591;48.102;11.772;2023-05-14T03:36:47;23.48;;;13.57;;
46116;SDS011;32591;48.102;11.772;2023-05-14T03:39:15;25.55;;;12.65;;
46116;SDS011;32591;48.102;11.772;2023-05-14T03:41:43;23.08;;;12.73;;
46116;SDS011;32591;48.102;11.772;2023-05-14T03:44:11;21.73;;;13.13;;
46116;SDS011;32591;48.102;11.772;2023-05-14T03:46:38;20.73;;;12.15;;
46116;SDS011;32591;48.102;11.772;2023-05-14T03:49:05;20.02;;;13.52;;
46116;SDS011;32591;48.102;11.772;2023-05-14T03:51:33;23.13;;;13.05;;
46116;SDS011;32591;48.102;11.772;2023-05-14T03:54:02;24.73;;;14.32;;
46116;SDS011;32591;48.102;11.772;2023-05-14T03:56:29;24.27;;;13.85;;
46116;SDS011;32591;48.102;11.772;2023-05-14T03:58:56;25.30;;;13.48;;
46116;SDS011;32591;48.102;11.772;2023-05-14T04:01:24;26.38;;;14.05;;
46116;SDS011;32591;48.102;11.772;2023-05-14T04:03:51;24.80;;;13.75;;
46116;SDS011;32591;48.102;11.772;2023-05-14T04:06:18;20.65;;;13.63;;
46116;SDS011;32591;48.102;11.772;2023-05-14T04:08:45;21.63;;;13.65;;
46116;SDS011;32591;48.102;11.772;2023-05-14T04:11:13;25.17;;;13.65;;
46116;SDS011;32591;48.102;11.772;2023-05-14T04:13:40;24.88;;;14.23;;
46116;SDS011;32591;48.102;11.772;2023-05-14T04:16:07;24.58;;;13.63;;
46116;SDS011;32591;48.102;11.772;2023-05-14T04:18:34;29.27;;;15.13;;
46116;SDS011;32591;48.102;11.772;2023-05-14T04:21:01;27.05;;;15.48;;
46116;SDS011;32591;48.102;11.772;2023-05-14T04:23:28;23.90;;;13.27;;
46116;SDS011;32591;48.102;11.772;2023-05-14T04:25:56;24.50;;;14.65;;
46116;SDS011;32591;48.102;11.772;2023-05-14T04:28:24;21.55;;;14.23;;
46116;SDS011;32591;48.102;11.772;2023-05-14T04:30:51;25.80;;;14.48;;
46116;SDS011;32591;48.102;11.772;2023-05-14T04:33:18;23.48;;;13.52;;
46116;SDS011;32591;48.102;11.772;2023-05-14T04:35:45;24.75;;;15.32;;
46116;SDS011;32591;48.102;11.772;2023-05-14T04:38:12;29.02;;;15.13;;
46116;SDS011;32591;48.102;11.772;2023-05-14T04:40:40;29.98;;;15.30;;
46116;SDS011;32591;48.102;11.772;2023-05-14T04:43:07;28.85;;;15.02;;
46116;SDS011;32591;48.102;11.772;2023-05-14T04:45:36;24.98;;;15.65;;
46116;SDS011;32591;48.102;11.772;2023-05-14T04:48:03;26.05;;;15.27;;
46116;SDS011;32591;48.102;11.772;2023-05-14T04:50:32;22.35;;;13.40;;
46116;SDS011;32591;48.102;11.772;2023-05-14T04:52:59;25.45;;;14.80;;
46116;SDS011;32591;48.102;11.772;2023-05-14T04:55:27;23.30;;;13.20;;
46116;SDS011;32591;48.102;11.772;2023-05-14T04:57:54;26.30;;;14.43;;
46116;SDS011;32591;48.102;11.772;2023-05-14T05:00:21;25.02;;;13.95;;
46116;SDS011;32591;48.102;11.772;2023-05-14T05:02:50;22.92;;;13.82;;
46116;SDS011;32591;48.102;11.772;2023-05-14T05:05:17;26.08;;;14.25;;
46116;SDS011;32591;48.102;11.772;2023-05-14T05:07:44;25.52;;;13.60;;
46116;SDS011;32591;48.102;11.772;2023-05-14T05:10:12;23.83;;;14.48;;
46116;SDS011;32591;48.102;11.772;2023-05-14T05:12:40;27.92;;;14.77;;
46116;SDS011;32591;48.102;11.772;2023-05-14T05:15:07;23.80;;;14.40;;
46116;SDS011;32591;48.102;11.772;2023-05-14T05:17:35;26.42;;;13.77;;
46116;SDS011;32591;48.102;11.772;2023-05-14T05:20:04;24.65;;;14.50;;
46116;SDS011;32591;48.102;11.772;2023-05-14T05:22:34;23.95;;;14.00;;
46116;SDS011;32591;48.102;11.772;2023-05-14T05:25:01;24.17;;;14.57;;
46116;SDS011;32591;48.102;11.772;2023-05-14T05:27:30;24.45;;;14.18;;
46116;SDS011;32591;48.102;11.772;2023-05-14T05:29:57;23.27;;;13.80;;
46116;SDS011;32591;48.102;11.772;2023-05-14T05:32:25;23.75;;;14.48;;
46116;SDS011;32591;48.102;11.772;2023-05-14T05:34:52;21.90;;;13.15;;
46116;SDS011;32591;48.102;11.772;2023-05-14T05:37:21;22.55;;;12.25;;
46116;SDS011;32591;48.102;11.772;2023-05-14T05:39:48;20.63;;;11.80;;
46116;SDS011;32591;48.102;11.772;2023-05-14T05:42:15;26.83;;;13.93;;
46116;SDS011;32591;48.102;11.772;2023-05-14T05:44:42;22.52;;;13.38;;
46116;SDS011;32591;48.102;11.772;2023-05-14T05:47:09;23.33;;;12.88;;
46116;SDS011;32591;48.102;11.772;2023-05-14T05:49:36;23.00;;;13.23;;
46116;SDS011;32591;48.102;11.772;2023-05-14T05:52:03;24.52;;;14.18;;
46116;SDS011;32591;48.102;11.772;2023-05-14T05:54:32;22.77;;;12.82;;
46116;SDS011;32591;48.102;11.772;2023-05-14T05:56:59;23.83;;;12.80;;
46116;SDS011;32591;48.102;11.772;2023-05-14T05:59:26;25.10;;;12.65;;
46116;SDS011;32591;48.102;11.772;2023-05-14T06:01:53;22.20;;;12.35;;
46116;SDS011;32591;48.102;11.772;2023-05-14T06:04:20;20.13;;;12.52;;
46116;SDS011;32591;48.102;11.772;2023-05-14T06:06:47;21.48;;;12.15;;
46116;SDS011;32591;48.102;11.772;2023-05-14T06:09:14;22.63;;;13.48;;
46116;SDS011;32591;48.102;11.772;2023-05-14T06:11:42;22.58;;;11.80;;
46116;SDS011;32591;48.102;11.772;2023-05-14T06:14:09;22.42;;;13.82;;
46116;SDS011;32591;48.102;11.772;2023-05-14T06:16:36;25.90;;;14.05;;
46116;SDS011;32591;48.102;11.772;2023-05-14T06:19:03;25.45;;;14.27;;
46116;SDS011;32591;48.102;11.772;2023-05-14T06:21:30;24.73;;;14.50;;
46116;SDS011;32591;48.102;11.772;2023-05-14T06:23:57;22.73;;;12.38;;
46116;SDS011;32591;48.102;11.772;2023-05-14T06:26:24;20.55;;;11.23;;
46116;SDS011;32591;48.102;11.772;2023-05-14T06:28:53;19.92;;;12.02;;
46116;SDS011;32591;48.102;11.772;2023-05-14T06:31:20;23.88;;;12.98;;
46116;SDS011;32591;48.102;11.772;2023-05-14T06:33:47;25.45;;;13.27;;
46116;SDS011;32591;48.102;11.772;2023-05-14T06:36:14;23.27;;;12.48;;
46116;SDS011;32591;48.102;11.772;2023-05-14T06:38:41;22.92;;;11.57;;
46116;SDS011;32591;48.102;11.772;2023-05-14T06:41:08;23.13;;;12.80;;
46116;SDS011;32591;48.102;11.772;2023-05-14T06:43:35;23.75;;;12.55;;
46116;SDS011;32591;48.102;11.772;2023-05-14T06:46:03;22.88;;;13.38;;
46116;SDS011;32591;48.102;11.772;2023-05-14T06:48:31;23.35;;;13.07;;
46116;SDS011;32591;48.102;11.772;2023-05-14T06:50:58;24.05;;;13.77;;
46116;SDS011;32591;48.102;11.772;2023-05-14T06:53:25;23.38;;;13.80;;
46116;SDS011;32591;48.102;11.772;2023-05-14T06:55:52;21.13;;;12.80;;
46116;SDS011;32591;48.102;11.772;2023-05-14T06:58:20;26.33;;;13.10;;
46116;SDS011;32591;48.102;11.772;2023-05-14T07:00:47;22.98;;;12.25;;
46116;SDS011;32591;48.102;11.772;2023-05-14T07:03:15;22.35;;;13.45;;
46116;SDS011;32591;48.102;11.772;2023-05-14T07:05:43;23.67;;;12.60;;
46116;SDS011;32591;48.102;11.772;2023-05-14T07:08:10;23.00;;;13.05;;
46116;SDS011;32591;48.102;11.772;2023-05-14T07:10:37;22.55;;;12.18;;
46116;SDS011;32591;48.102;11.772;2023-05-14T07:13:05;20.63;;;11.75;;
46116;SDS011;32591;48.102;11.772;2023-05-14T07:15:33;23.73;;;11.00;;
46116;SDS011;32591;48.102;11.772;2023-05-14T07:17:59;23.40;;;12.25;;
46116;SDS011;32591;48.102;11.772;2023-05-14T07:20:28;22.38;;;12.40;;
46116;SDS011;32591;48.102;11.772;2023-05-14T07:22:55;24.77;;;12.68;;
46116;SDS011;32591;48.102;11.772;2023-05-14T07:25:22;25.60;;;13.75;;
46116;SDS011;32591;48.102;11.772;2023-05-14T07:27:49;24.58;;;13.82;;
46116;SDS011;32591;48.102;11.772;2023-05-14T07:30:16;26.08;;;13.48;;
46116;SDS011;32591;48.102;11.772;2023-05-14T07:32:43;23.25;;;12.30;;
46116;SDS011;32591;48.102;11.772;2023-05-14T07:35:10;28.08;;;13.93;;
46116;SDS011;32591;48.102;11.772;2023-05-14T07:37:38;25.95;;;13.27;;
46116;SDS011;32591;48.102;11.772;2023-05-14T07:40:07;25.42;;;13.07;;
46116;SDS011;32591;48.102;11.772;2023-05-14T07:42:35;21.40;;;12.20;;
46116;SDS011;32591;48.102;11.772;2023-05-14T07:45:02;19.30;;;11.15;;
46116;SDS011;32591;48.102;11.772;2023-05-14T07:47:29;23.92;;;10.90;;
46116;SDS011;32591;48.102;11.772;2023-05-14T07:49:56;18.60;;;10.88;;
46116;SDS011;32591;48.102;11.772;2023-05-14T07:52:23;18.90;;;11.15;;
46116;SDS011;32591;48.102;11.772;2023-05-14T07:54:52;20.55;;;11.45;;
46116;SDS011;32591;48.102;11.772;2023-05-14T07:57:19;15.50;;;9.93;;
46116;SDS011;32591;48.102;11.772;2023-05-14T07:59:46;20.42;;;11.55;;
46116;SDS011;32591;48.102;11.772;2023-05-14T08:02:13;19.60;;;10.10;;
46116;SDS011;32591;48.102;11.772;2023-05-14T08:04:41;16.92;;;10.23;;
46116;SDS011;32591;48.102;11.772;2023-05-14T08:07:09;16.65;;;9.30;;
46116;SDS011;32591;48.102;11.772;2023-05-14T08:09:36;18.48;;;9.88;;
46116;SDS011;32591;48.102;11.772;2023-05-14T08:12:05;19.45;;;11.13;;
46116;SDS011;32591;48.102;11.772;2023-05-14T08:14:32;17.40;;;10.05;;
46116;SDS011;32591;48.102;11.772;2023-05-14T08:16:59;17.88;;;9.90;;
46116;SDS011;32591;48.102;11.772;2023-05-14T08:19:27;17.33;;;10.20;;
46116;SDS011;32591;48.102;11.772;2023-05-14T08:21:54;17.80;;;10.50;;
46116;SDS011;32591;48.102;11.772;2023-05-14T08:24:21;18.23;;;10.52;;
46116;SDS011;32591;48.102;11.772;2023-05-14T08:26:48;16.77;;;9.82;;
46116;SDS011;32591;48.102;11.772;2023-05-14T08:29:16;12.93;;;8.68;;
46116;SDS011;32591;48.102;11.772;2023-05-14T08:31:43;14.50;;;8.70;;
46116;SDS011;32591;48.102;11.772;2023-05-14T08:34:10;16.67;;;9.32;;
46116;SDS011;32591;48.102;11.772;2023-05-14T08:36:38;18.80;;;9.73;;
46116;SDS011;32591;48.102;11.772;2023-05-14T08:39:05;15.18;;;9.73;;
46116;SDS011;32591;48.102;11.772;2023-05-14T08:41:32;13.45;;;8.55;;
46116;SDS011;32591;48.102;11.772;2023-05-14T08:44:02;14.45;;;8.82;;
46116;SDS011;32591;48.102;11.772;2023-05-14T08:46:35;15.45;;;8.82;;
46116;SDS011;32591;48.102;11.772;2023-05-14T08:49:05;17.48;;;10.13;;
46116;SDS011;32591;48.102;11.772;2023-05-14T08:51:42;15.93;;;9.77;;
46116;SDS011;32591;48.102;11.772;2023-05-14T08:54:11;15.35;;;9.57;;
46116;SDS011;32591;48.102;11.772;2023-05-14T08:56:42;18.33;;;10.50;;
46116;SDS011;32591;48.102;11.772;2023-05-14T08:59:10;14.43;;;8.70;;
46116;SDS011;32591;48.102;11.772;2023-05-14T09:01:40;15.32;;;9.40;;
46116;SDS011;32591;48.102;11.772;2023-05-14T09:04:13;17.40;;;9.88;;
46116;SDS011;32591;48.102;11.772;2023-05-14T09:06:42;14.20;;;8.73;;
46116;SDS011;32591;48.102;11.772;2023-05-14T09:09:09;13.95;;;8.35;;
46116;SDS011;32591;48.102;11.772;2023-05-14T09:11:39;15.35;;;8.93;;
46116;SDS011;32591;48.102;11.772;2023-05-14T09:14:06;15.25;;;9.27;;
46116;SDS011;32591;48.102;11.772;2023-05-14T09:16:35;13.65;;;8.05;;
46116;SDS011;32591;48.102;11.772;2023-05-14T09:19:06;15.15;;;8.95;;
46116;SDS011;32591;48.102;11.772;2023-05-14T09:21:33;14.23;;;8.05;;
46116;SDS011;32591;48.102;11.772;2023-05-14T09:24:00;14.35;;;8.75;;
46116;SDS011;32591;48.102;11.772;2023-05-14T09:26:30;14.15;;;8.30;;
46116;SDS011;32591;48.102;11.772;2023-05-14T09:28:58;12.68;;;8.88;;
46116;SDS011;32591;48.102;11.772;2023-05-14T09:31:28;13.85;;;9.05;;
46116;SDS011;32591;48.102;11.772;2023-05-14T09:33:55;11.73;;;7.60;;
46116;SDS011;32591;48.102;11.772;2023-05-14T09:36:34;10.95;;;6.82;;
46116;SDS011;32591;48.102;11.772;2023-05-14T09:39:02;13.20;;;7.72;;
46116;SDS011;32591;48.102;11.772;2023-05-14T09:41:30;12.52;;;7.93;;
46116;SDS011;32591;48.102;11.772;2023-05-14T09:43:56;12.10;;;6.97;;
46116;SDS011;32591;48.102;11.772;2023-05-14T09:46:26;12.55;;;7.88;;
46116;SDS011;32591;48.102;11.772;2023-05-14T09:48:55;14.35;;;8.45;;
46116;SDS011;32591;48.102;11.772;2023-05-14T09:51:23;15.40;;;8.48;;
46116;SDS011;32591;48.102;11.772;2023-05-14T09:53:52;10.10;;;7.03;;
46116;SDS011;32591;48.102;11.772;2023-05-14T09:56:20;11.55;;;6.47;;
46116;SDS011;32591;48.102;11.772;2023-05-14T09:58:47;10.23;;;7.25;;
46116;SDS011;32591;48.102;11.772;2023-05-14T10:01:15;11.43;;;7.03;;
46116;SDS011;32591;48.102;11.772;2023-05-14T10:03:44;12.13;;;7.22;;
46116;SDS011;32591;48.102;11.772;2023-05-14T10:06:12;10.60;;;7.25;;
46116;SDS011;32591;48.102;11.772;2023-05-14T10:08:42;10.02;;;6.70;;
46116;SDS011;32591;48.102;11.772;2023-05-14T10:11:12;12.00;;;7.55;;
46116;SDS011;32591;48.102;11.772;2023-05-14T10:13:45;11.55;;;6.75;;
46116;SDS011;32591;48.102;11.772;2023-05-14T10:16:23;13.50;;;7.47;;
46116;SDS011;32591;48.102;11.772;2023-05-14T10:18:55;10.98;;;6.80;;
46116;SDS011;32591;48.102;11.772;2023-05-14T10:21:28;10.98;;;7.53;;
46116;SDS011;32591;48.102;11.772;2023-05-14T10:23:59;9.25;;;6.60;;
46116;SDS011;32591;48.102;11.772;2023-05-14T10:26:28;12.57;;;7.03;;
46116;SDS011;32591;48.102;11.772;2023-05-14T10:28:55;11.32;;;6.63;;
46116;SDS011;32591;48.102;11.772;2023-05-14T10:31:24;8.57;;;5.63;;
46116;SDS011;32591;48.102;11.772;2023-05-14T10:36:58;8.57;;;5.68;;
46116;SDS011;32591;48.102;11.772;2023-05-14T10:39:42;11.27;;;6.53;;
46116;SDS011;32591;48.102;11.772;2023-05-14T10:42:13;10.85;;;6.18;;
46116;SDS011;32591;48.102;11.772;2023-05-14T10:44:47;9.98;;;5.82;;
46116;SDS011;32591;48.102;11.772;2023-05-14T10:47:17;9.02;;;6.15;;
46116;SDS011;32591;48.102;11.772;2023-05-14T10:49:45;9.35;;;6.00;;
46116;SDS011;32591;48.102;11.772;2023-05-14T10:52:17;8.93;;;6.05;;
46116;SDS011;32591;48.102;11.772;2023-05-14T10:54:48;9.07;;;5.90;;
46116;SDS011;32591;48.102;11.772;2023-05-14T10:57:18;7.18;;;5.20;;
46116;SDS011;32591;48.102;11.772;2023-05-14T10:59:46;9.50;;;5.85;;
46116;SDS011;32591;48.102;11.772;2023-05-14T11:02:21;9.23;;;6.47;;
46116;SDS011;32591;48.102;11.772;2023-05-14T11:04:51;9.52;;;6.28;;
46116;SDS011;32591;48.102;11.772;2023-05-14T11:07:26;10.25;;;6.28;;
46116;SDS011;32591;48.102;11.772;2023-05-14T11:09:59;9.50;;;5.70;;
46116;SDS011;32591;48.102;11.772;2023-05-14T11:12:30;9.75;;;5.80;;
46116;SDS011;32591;48.102;11.772;2023-05-14T11:14:58;8.18;;;4.95;;
46116;SDS011;32591;48.102;11.772;2023-05-14T11:17:28;9.90;;;6.10;;
46116;SDS011;32591;48.102;11.772;2023-05-14T11:19:56;8.18;;;5.40;;
46116;SDS011;32591;48.102;11.772;2023-05-14T11:22:25;9.38;;;5.53;;
46116;SDS011;32591;48.102;11.772;2023-05-14T11:24:53;9.43;;;5.97;;
46116;SDS011;32591;48.102;11.772;2023-05-14T11:27:20;9.00;;;6.32;;
46116;SDS011;32591;48.102;11.772;2023-05-14T11:29:49;9.95;;;6.65;;
46116;SDS011;32591;48.102;11.772;2023-05-14T11:32:16;10.05;;;6.07;;
46116;SDS011;32591;48.102;11.772;2023-05-14T11:34:44;8.43;;;6.50;;
46116;SDS011;32591;48.102;11.772;2023-05-14T11:37:12;8.75;;;5.95;;
46116;SDS011;32591;48.102;11.772;2023-05-14T11:39:45;9.57;;;5.43;;
46116;SDS011;32591;48.102;11.772;2023-05-14T11:42:14;7.90;;;5.90;;
46116;SDS011;32591;48.102;11.772;2023-05-14T11:44:44;7.47;;;5.45;;
46116;SDS011;32591;48.102;11.772;2023-05-14T11:47:14;8.95;;;5.95;;
46116;SDS011;32591;48.102;11.772;2023-05-14T11:49:42;8.52;;;5.60;;
46116;SDS011;32591;48.102;11.772;2023-05-14T11:52:10;8.60;;;5.55;;
46116;SDS011;32591;48.102;11.772;2023-05-14T11:54:39;7.28;;;5.00;;
46116;SDS011;32591;48.102;11.772;2023-05-14T11:57:08;7.93;;;5.20;;
46116;SDS011;32591;48.102;11.772;2023-05-14T11:59:38;10.02;;;6.25;;
46116;SDS011;32591;48.102;11.772;2023-05-14T12:02:07;7.30;;;5.20;;
46116;SDS011;32591;48.102;11.772;2023-05-14T12:04:38;9.65;;;5.43;;
46116;SDS011;32591;48.102;11.772;2023-05-14T12:07:07;8.27;;;5.90;;
46116;SDS011;32591;48.102;11.772;2023-05-14T12:09:36;8.48;;;5.78;;
46116;SDS011;32591;48.102;11.772;2023-05-14T12:12:08;6.15;;;4.32;;
46116;SDS011;32591;48.102;11.772;2023-05-14T12:14:37;6.18;;;4.38;;
46116;SDS011;32591;48.102;11.772;2023-05-14T12:17:13;5.90;;;4.18;;
46116;SDS011;32591;48.102;11.772;2023-05-14T12:19:44;7.53;;;5.38;;
46116;SDS011;32591;48.102;11.772;2023-05-14T12:22:15;6.38;;;4.03;;
46116;SDS011;32591;48.102;11.772;2023-05-14T12:24:51;6.30;;;3.88;;
46116;SDS011;32591;48.102;11.772;2023-05-14T12:27:20;6.05;;;4.60;;
46116;SDS011;32591;48.102;11.772;2023-05-14T12:29:49;5.70;;;4.20;;
46116;SDS011;32591;48.102;11.772;2023-05-14T12:32:17;6.72;;;4.55;;
46116;SDS011;32591;48.102;11.772;2023-05-14T12:34:46;7.10;;;4.40;;
46116;SDS011;32591;48.102;11.772;2023-05-14T12:37:13;7.55;;;4.63;;
46116;SDS011;32591;48.102;11.772;2023-05-14T12:39:40;5.68;;;4.25;;
46116;SDS011;32591;48.102;11.772;2023-05-14T12:42:07;7.50;;;5.07;;
46116;SDS011;32591;48.102;11.772;2023-05-14T12:44:34;6.90;;;4.72;;
46116;SDS011;32591;48.102;11.772;2023-05-14T12:47:00;6.90;;;5.03;;
46116;SDS011;32591;48.102;11.772;2023-05-14T12:49:27;9.70;;;6.00;;
46116;SDS011;32591;48.102;11.772;2023-05-14T12:51:56;7.35;;;4.22;;
46116;SDS011;32591;48.102;11.772;2023-05-14T12:54:23;6.93;;;4.43;;
46116;SDS011;32591;48.102;11.772;2023-05-14T12:56:50;8.32;;;5.35;;
46116;SDS011;32591;48.102;11.772;2023-05-14T12:59:17;7.32;;;5.10;;
46116;SDS011;32591;48.102;11.772;2023-05-14T13:01:44;7.07;;;5.18;;
46116;SDS011;32591;48.102;11.772;2023-05-14T13:04:11;6.32;;;4.80;;
46116;SDS011;32591;48.102;11.772;2023-05-14T13:06:38;7.40;;;5.32;;
46116;SDS011;32591;48.102;11.772;2023-05-14T13:09:06;6.75;;;4.90;;
46116;SDS011;32591;48.102;11.772;2023-05-14T13:11:34;7.72;;;5.47;;
46116;SDS011;32591;48.102;11.772;2023-05-14T13:14:01;7.22;;;5.00;;
46116;SDS011;32591;48.102;11.772;2023-05-14T13:16:28;5.95;;;4.10;;
46116;SDS011;32591;48.102;11.772;2023-05-14T13:18:56;5.60;;;4.22;;
46116;SDS011;32591;48.102;11.772;2023-05-14T13:21:23;7.15;;;5.00;;
46116;SDS011;32591;48.102;11.772;2023-05-14T13:23:50;8.10;;;4.55;;
46116;SDS011;32591;48.102;11.772;2023-05-14T13:26:18;6.22;;;4.75;;
46116;SDS011;32591;48.102;11.772;2023-05-14T13:28:45;7.32;;;4.70;;
46116;SDS011;32591;48.102;11.772;2023-05-14T13:31:13;6.25;;;4.47;;
46116;SDS011;32591;48.102;11.772;2023-05-14T13:33:40;5.97;;;4.15;;
46116;SDS011;32591;48.102;11.772;2023-05-14T13:36:09;7.03;;;4.82;;
46116;SDS011;32591;48.102;11.772;2023-05-14T13:38:38;6.03;;;5.00;;
46116;SDS011;32591;48.102;11.772;2023-05-14T13:41:05;5.85;;;4.50;;
46116;SDS011;32591;48.102;11.772;2023-05-14T13:43:34;6.78;;;4.43;;
46116;SDS011;32591;48.102;11.772;2023-05-14T13:46:01;6.05;;;3.97;;
46116;SDS011;32591;48.102;11.772;2023-05-14T13:48:30;7.95;;;4.63;;
46116;SDS011;32591;48.102;11.772;2023-05-14T13:50:57;5.68;;;4.55;;
46116;SDS011;32591;48.102;11.772;2023-05-14T13:53:24;7.18;;;4.68;;
46116;SDS011;32591;48.102;11.772;2023-05-14T13:55:51;6.57;;;4.43;;
46116;SDS011;32591;48.102;11.772;2023-05-14T13:58:20;6.25;;;4.63;;
46116;SDS011;32591;48.102;11.772;2023-05-14T14:00:50;5.38;;;4.43;;
46116;SDS011;32591;48.102;11.772;2023-05-14T14:03:17;6.45;;;4.20;;
46116;SDS011;32591;48.102;11.772;2023-05-14T14:05:44;5.85;;;4.90;;
46116;SDS011;32591;48.102;11.772;2023-05-14T14:08:11;6.15;;;4.53;;
46116;SDS011;32591;48.102;11.772;2023-05-14T14:10:38;5.20;;;3.92;;
46116;SDS011;32591;48.102;11.772;2023-05-14T14:13:06;5.70;;;4.30;;
46116;SDS011;32591;48.102;11.772;2023-05-14T14:15:34;5.50;;;4.05;;
46116;SDS011;32591;48.102;11.772;2023-05-14T14:18:03;7.47;;;5.03;;
46116;SDS011;32591;48.102;11.772;2023-05-14T14:20:30;6.00;;;4.90;;
46116;SDS011;32591;48.102;11.772;2023-05-14T14:22:57;6.00;;;4.03;;
46116;SDS011;32591;48.102;11.772;2023-05-14T14:25:24;6.88;;;4.25;;
46116;SDS011;32591;48.102;11.772;2023-05-14T14:27:51;5.13;;;3.42;;